Portada
METAR-TAF:

METAR-TAF

Aeropuertos :

Meridian Regional Airport (Key Field)

Meridian, Misisipi, Estados Unidos

latitud: 32-20-17N, longitud: 088-44-52W, altitud: 90 m

Observación

El informe se hizo hace 35 minutos, a las 19:58 UTC
Viento 15 kt del oeste-noroeste con ráfagas de 24 kt
Temperatura 21°C
Humedad 23%
Presión 1014 hPa
Visibilidad: 16.1 km
Cielo despejado

METAR: KMEI 201958Z 30015G24KT 10SM CLR 21/M01 A2993 RMK AO2 SLP134 T02111011

Hora: 15:33 (20:33 UTC)

Pronóstico

El informe se hizo hace 3 horas y 8 minutos, a las 17:25 UTC
Pronóstico válido del 20 a las 18 UTC al 21 a las 18 UTC
Viento 16 kt del oeste-noroeste con ráfagas de 24 kt
Visibilidad: 10 km
Cielo despejado
A partir de las 21 a las 0000 UTC
Viento 3 kt del suroeste
Visibilidad: 10 km
Cielo despejado

TAF: KMEI 201725Z 2018/2118 30016G24KT P6SM SKC FM210000 22003KT P6SM SKC

Observaciones y pronósticos meteorológicos de más de 4000 aeropuertos (mensajes METAR y TAF).

Los puntos amarillos y rojos representan las estaciones disponibles.

Ponga el ratón en el punto deseado para ver el nombre de la estación.

Haga clic para ver las observaciones y los pronósticos meteorológicos.

Para cambiar el mapa : haga clic en los botones verdes con una cruz de color negro para hacer un zoom, en el botón verde con un guión para alejar o en las flechas verdes para mapas adyacentes.


METAR-TAF: